This is the latest recevied weather packets stored in our database for station/object LRSM. If no packets are shown the sender has not sent any weather packets the latest 1 day(s).
| Time | Temp. | Humidity | Pressure | Rain* | Wind** | Luminosity | Snow |
|---|---|---|---|---|---|---|---|
| 1778097812 | 16.11° C | 55% | 1011 hPa | - | - | - | - |
| 1778096036 | 16.11° C | 59% | 1011 hPa | - | - | - | - |
| 1778093318 | 18.89° C | 49% | 1011 hPa | - | - | - | - |
| 1778090613 | 18.89° C | 49% | 1010 hPa | - | - | - | - |
| 1778089713 | 21.11° C | 43% | 1010 hPa | - | - | - | - |
| 1778087913 | 22.78° C | 38% | 1010 hPa | - | - | - | - |
| 1778084313 | 26.11° C | 34% | 1010 hPa | - | - | - | - |
| 1778082513 | 26.11° C | 32% | 1011 hPa | - | - | - | - |
| 1778080712 | 26.11° C | 30% | 1011 hPa | - | - | - | - |
| 1778078024 | 27.22° C | 28% | 1011 hPa | - | - | - | - |
| 1778071713 | 27.22° C | 28% | 1012 hPa | - | - | - | - |
| 1778069913 | 26.11° C | 32% | 1012 hPa | - | - | - | - |
| 1778067213 | 26.11° C | 32% | 1012 hPa | - | - | - | - |
| 1778065412 | 26.11° C | 32% | 1013 hPa | - | - | - | - |
| 1778063613 | 25° C | 34% | 1013 hPa | - | - | - | - |
| 1778062713 | 25° C | 34% | 1013 hPa | - | - | - | - |
| 1778060012 | 25° C | 34% | 1013 hPa | - | - | - | - |
| 1778058212 | 23.89° C | 36% | 1013 hPa | - | - | - | - |
| 1778055509 | 22.22° C | 41% | 1013 hPa | - | - | - | - |
| 1778053713 | 22.22° C | 44% | 1013 hPa | - | - | - | - |
| 1778051912 | 21.11° C | 43% | 1013 hPa | - | - | - | - |
| 1778051012 | 21.11° C | 43% | 1013 hPa | - | - | - | - |
| 1778049212 | 20° C | 46% | 1013 hPa | - | - | - | - |
| 1778047414 | 18.89° C | 46% | 1013 hPa | - | - | - | - |
| 1778045621 | 17.78° C | 49% | 1013 hPa | - | - | - | - |
* Rain since midnight (hover to see other rain measurements)
** Current wind speed in m/s (hover to see current wind gust speed)